Time;durP1;ratioP1;P1;durP2;ratioP2;P2;SDS_P1;SDS_P2;PMS_P1;PMS_P2;Temp;Humidity;BMP_temperature;BMP_pressure;BME280_temperature;BME280_humidity;BME280_pressure;Samples;Min_cycle;Max_cycle;Signal;HPM_P1;HPM_P2
2023/05/17 00:00:29;;;;;;;15.75;4.45;;;;;;;8.27;100.00;102097.53;4957533;28;20608;-76
2023/05/17 00:02:54;;;;;;;12.57;4.18;;;;;;;8.40;100.00;102112.31;4940826;28;20572;-78
2023/05/17 00:05:20;;;;;;;19.35;4.80;;;;;;;8.36;100.00;102120.72;4925023;28;20042;-76
2023/05/17 00:07:46;;;;;;;10.95;3.60;;;;;;;8.19;100.00;102111.53;4957475;28;20097;-77
2023/05/17 00:10:11;;;;;;;17.83;3.75;;;;;;;8.06;100.00;102088.53;4930655;28;20062;-77
2023/05/17 00:12:37;;;;;;;16.98;4.15;;;;;;;7.94;100.00;102087.31;4938471;28;20027;-76
2023/05/17 00:15:03;;;;;;;11.40;4.13;;;;;;;8.18;100.00;102117.06;4957549;28;20042;-77
2023/05/17 00:17:28;;;;;;;17.02;5.43;;;;;;;8.26;100.00;102107.56;4942050;28;20031;-79
2023/05/17 00:19:54;;;;;;;21.15;4.50;;;;;;;8.09;100.00;102107.50;4924368;28;20142;-75
2023/05/17 00:22:19;;;;;;;17.20;4.80;;;;;;;8.09;100.00;102115.66;4956721;28;20106;-76
2023/05/17 00:24:44;;;;;;;17.50;4.15;;;;;;;8.08;100.00;102114.81;4924426;28;20049;-79
2023/05/17 00:27:13;;;;;;;20.08;4.95;;;;;;;7.90;100.00;102099.28;4957427;28;20078;-78
2023/05/17 00:29:38;;;;;;;21.80;4.45;;;;;;;8.18;100.00;102128.88;4971822;28;20038;-76
2023/05/17 00:32:04;;;;;;;25.80;5.30;;;;;;;8.07;100.00;102123.06;4943949;28;21140;-75
2023/05/17 00:34:30;;;;;;;26.05;4.78;;;;;;;8.08;100.00;102114.81;4912532;28;20038;-77
2023/05/17 00:36:55;;;;;;;14.30;5.28;;;;;;;7.94;100.00;102127.34;4944347;28;20039;-75
2023/05/17 00:39:21;;;;;;;20.50;4.88;;;;;;;7.93;100.00;102129.16;4944363;28;20043;-76
2023/05/17 00:41:46;;;;;;;28.35;5.47;;;;;;;8.03;100.00;102130.47;4956991;28;20094;-75
2023/05/17 00:44:11;;;;;;;19.05;4.85;;;;;;;7.91;100.00;102123.75;4957500;28;20394;-79
2023/05/17 00:46:37;;;;;;;27.20;6.10;;;;;;;7.91;100.00;102129.22;4942528;28;20541;-78
2023/05/17 00:49:02;;;;;;;22.88;5.75;;;;;;;7.93;100.00;102131.00;4947251;28;20058;-75
2023/05/17 00:51:28;;;;;;;14.13;4.93;;;;;;;7.84;100.00;102119.56;4944743;28;20117;-75
2023/05/17 00:53:54;;;;;;;20.80;5.72;;;;;;;7.78;100.00;102121.72;4959628;28;20050;-77
2023/05/17 00:56:19;;;;;;;18.13;4.80;;;;;;;7.78;100.00;102117.13;4950247;28;20061;-78
2023/05/17 00:58:45;;;;;;;24.55;5.70;;;;;;;7.73;100.00;102111.00;4958401;28;20070;-76
2023/05/17 01:01:11;;;;;;;14.52;5.30;;;;;;;7.84;100.00;102118.69;4948135;28;20069;-79
2023/05/17 01:03:37;;;;;;;20.35;5.28;;;;;;;7.79;100.00;102115.28;4955637;28;20073;-79
2023/05/17 01:06:04;;;;;;;16.95;5.10;;;;;;;7.71;100.00;102115.66;4959308;28;20117;-79
2023/05/17 01:08:30;;;;;;;18.35;5.30;;;;;;;7.86;100.00;102117.66;4958246;28;20463;-79
2023/05/17 01:11:05;;;;;;;17.02;5.00;;;;;;;7.74;100.00;102112.78;4954587;28;20090;-79
2023/05/17 01:13:35;;;;;;;19.98;5.03;;;;;;;7.73;100.00;102119.19;4959539;28;20037;-80
2023/05/17 01:16:32;;;;;;;22.25;5.07;;;;;;;7.74;100.00;102120.97;4954926;28;20142;-79
2023/05/17 01:19:07;;;;;;;14.35;4.90;;;;;;;7.71;100.00;102122.00;4954721;28;20026;-79
2023/05/17 01:22:07;;;;;;;25.90;5.15;;;;;;;7.66;100.00;102120.44;4956879;28;20047;-79
2023/05/17 01:24:47;;;;;;;23.85;5.68;;;;;;;7.75;100.00;102114.53;4971268;28;20050;-80
2023/05/17 01:27:14;;;;;;;17.23;5.22;;;;;;;7.65;100.00;102110.50;4973922;28;20497;-80
2023/05/17 01:29:42;;;;;;;21.75;5.13;;;;;;;7.67;100.00;102116.75;4920886;28;20062;-80
2023/05/17 01:32:07;;;;;;;13.82;4.68;;;;;;;7.67;100.00;102122.19;4974082;28;20034;-81
2023/05/17 01:34:34;;;;;;;29.73;5.93;;;;;;;7.59;100.00;102118.94;4954817;28;20054;-80
2023/05/17 01:36:59;;;;;;;23.30;5.85;;;;;;;7.59;100.00;102129.84;4933725;28;20506;-79
2023/05/17 01:39:25;;;;;;;24.08;5.57;;;;;;;7.61;100.00;102127.94;4958631;28;20117;-79
2023/05/17 01:42:09;;;;;;;20.00;5.78;;;;;;;7.61;100.00;102133.38;4930167;28;20034;-78
2023/05/17 01:44:48;;;;;;;28.67;6.07;;;;;;;7.65;100.00;102129.56;4977130;28;20073;-81
2023/05/17 01:47:36;;;;;;;24.02;5.22;;;;;;;7.60;100.00;102126.19;4975829;28;20034;-81
2023/05/17 01:50:05;;;;;;;21.60;5.75;;;;;;;7.57;100.00;102124.47;4970740;28;20055;-81
2023/05/17 01:52:52;;;;;;;20.73;5.50;;;;;;;7.63;100.00;102129.63;4970605;28;20379;-79
2023/05/17 01:55:23;;;;;;;18.90;5.28;;;;;;;7.73;100.00;102124.66;4941037;28;20031;-79
2023/05/17 01:57:51;;;;;;;23.08;5.65;;;;;;;7.71;100.00;102123.84;4974956;28;20042;-78
2023/05/17 02:00:18;;;;;;;18.27;5.85;;;;;;;7.70;100.00;102130.25;4971990;28;20400;-80
2023/05/17 02:02:44;;;;;;;26.92;6.10;;;;;;;7.71;100.00;102132.03;4957529;28;20548;-80
2023/05/17 02:05:10;;;;;;;13.68;4.88;;;;;;;7.52;100.00;102123.78;4940926;28;20485;-79
2023/05/17 02:07:36;;;;;;;21.38;6.00;;;;;;;7.57;100.00;102110.84;4975050;28;20042;-79
2023/05/17 02:10:02;;;;;;;25.55;6.75;;;;;;;7.64;100.00;102119.59;4948026;28;20053;-79
2023/05/17 02:12:27;;;;;;;16.33;5.88;;;;;;;7.65;100.00;102114.09;4962750;28;20053;-80
2023/05/17 02:14:53;;;;;;;22.17;5.88;;;;;;;7.65;100.00;102111.38;4976838;28;20460;-79
2023/05/17 02:17:18;;;;;;;24.23;5.70;;;;;;;7.69;100.00;102117.56;4960254;28;20034;-80
2023/05/17 02:19:44;;;;;;;23.00;6.60;;;;;;;7.70;100.00;102113.88;4936298;28;21613;-79
2023/05/17 02:22:09;;;;;;;20.45;6.03;;;;;;;7.61;100.00;102112.47;4951858;28;20083;-79
2023/05/17 02:24:35;;;;;;;24.58;6.40;;;;;;;7.69;100.00;102128.44;4958256;28;20043;-79
2023/05/17 02:27:00;;;;;;;26.50;7.03;;;;;;;7.49;100.00;102113.94;4928096;28;20118;-79
2023/05/17 02:29:26;;;;;;;20.85;6.25;;;;;;;7.57;100.00;102126.31;4939832;28;20074;-79
2023/05/17 02:31:51;;;;;;;15.23;5.60;;;;;;;7.62;100.00;102130.59;4939380;28;20097;-79
2023/05/17 02:34:16;;;;;;;20.23;6.00;;;;;;;7.60;100.00;102131.63;4941739;28;20043;-80
2023/05/17 02:36:43;;;;;;;16.05;5.47;;;;;;;7.66;100.00;102132.22;4950105;28;20046;-80
2023/05/17 02:39:08;;;;;;;20.67;6.00;;;;;;;7.54;100.00;102141.84;4974494;28;20986;-80
2023/05/17 02:41:34;;;;;;;30.27;6.38;;;;;;;7.59;100.00;102138.94;4971731;28;20119;-80
2023/05/17 02:43:59;;;;;;;24.30;6.18;;;;;;;7.44;100.00;102145.06;4922371;28;20030;-79
2023/05/17 02:46:25;;;;;;;21.40;7.03;;;;;;;7.48;100.00;102147.59;4968469;28;20482;-79
2023/05/17 02:48:51;;;;;;;15.00;5.43;;;;;;;7.44;100.00;102153.22;4954433;28;20094;-79
2023/05/17 02:51:16;;;;;;;32.22;6.40;;;;;;;7.42;100.00;102144.25;4928409;28;20041;-79
2023/05/17 02:53:42;;;;;;;19.70;6.40;;;;;;;7.41;100.00;102139.75;4930606;28;20597;-80
2023/05/17 02:56:07;;;;;;;24.35;6.43;;;;;;;7.60;100.00;102151.59;4973965;28;20039;-79
2023/05/17 02:58:33;;;;;;;30.60;6.38;;;;;;;7.64;100.00;102146.88;4957398;28;20031;-79
2023/05/17 03:00:58;;;;;;;19.70;5.85;;;;;;;7.59;100.00;102138.94;4918770;29;20039;-79
2023/05/17 03:03:24;;;;;;;27.13;7.20;;;;;;;7.80;100.00;102138.88;4939593;28;20034;-80
2023/05/17 03:05:49;;;;;;;14.45;5.78;;;;;;;7.80;100.00;102141.59;4938791;28;20045;-79
2023/05/17 03:08:15;;;;;;;21.23;6.93;;;;;;;7.88;100.00;102145.72;4942212;28;20125;-80
2023/05/17 03:10:40;;;;;;;21.90;5.85;;;;;;;7.81;100.00;102168.78;4935780;28;20066;-79
2023/05/17 03:13:05;;;;;;;17.23;6.60;;;;;;;7.85;100.00;102164.06;4942879;28;20039;-81
2023/05/17 03:15:31;;;;;;;20.85;6.22;;;;;;;8.00;100.00;102168.84;4972660;28;20443;-83
2023/05/17 03:17:56;;;;;;;23.88;7.35;;;;;;;7.96;100.00;102166.31;4982502;28;20046;-79
2023/05/17 03:20:22;;;;;;;27.88;6.18;;;;;;;7.86;100.00;102169.47;4954244;28;20038;-80
2023/05/17 03:22:48;;;;;;;18.98;6.88;;;;;;;8.05;100.00;102168.59;4955675;28;20054;-80
2023/05/17 03:25:13;;;;;;;22.83;6.60;;;;;;;8.05;100.00;102171.31;4951971;28;20045;-80
2023/05/17 03:27:39;;;;;;;19.80;6.40;;;;;;;7.99;100.00;102160.72;4947144;28;20027;-80
2023/05/17 03:30:05;;;;;;;25.17;7.25;;;;;;;8.08;100.00;102166.63;4921013;28;20031;-79
2023/05/17 03:32:31;;;;;;;18.63;6.20;;;;;;;8.01;100.00;102164.25;4934414;28;20129;-79
2023/05/17 03:34:56;;;;;;;21.70;7.82;;;;;;;8.09;100.00;102168.38;4965960;28;20124;-80
2023/05/17 03:37:22;;;;;;;23.23;6.47;;;;;;;8.12;100.00;102164.63;4939838;28;20097;-79
2023/05/17 03:39:47;;;;;;;26.05;7.10;;;;;;;8.06;100.00;102175.81;4941647;28;20046;-78
2023/05/17 03:42:13;;;;;;;26.55;7.00;;;;;;;8.09;100.00;102172.97;4954907;28;20038;-79
2023/05/17 03:44:39;;;;;;;27.20;7.03;;;;;;;8.10;100.00;102174.75;4967676;28;20039;-78
2023/05/17 03:47:05;;;;;;;27.13;6.72;;;;;;;8.06;100.00;102176.69;4957594;28;20109;-79
2023/05/17 03:49:30;;;;;;;28.77;7.68;;;;;;;8.06;100.00;102181.28;4941505;28;20061;-80
2023/05/17 03:51:56;;;;;;;36.08;7.70;;;;;;;8.14;100.00;102187.25;4933244;28;20115;-79
2023/05/17 03:54:21;;;;;;;31.73;7.82;;;;;;;8.23;100.00;102194.09;4936253;28;20442;-79
2023/05/17 03:56:48;;;;;;;22.35;8.00;;;;;;;8.28;100.00;102195.69;4954073;28;20545;-79
2023/05/17 03:59:15;;;;;;;30.90;7.72;;;;;;;8.11;100.00;102184.66;4953634;28;20050;-79
2023/05/17 04:01:42;;;;;;;37.05;7.68;;;;;;;8.23;100.00;102175.00;4950802;28;20039;-79
2023/05/17 04:04:07;;;;;;;24.15;6.90;;;;;;;8.23;100.00;102188.66;4962832;28;20042;-80
2023/05/17 04:06:33;;;;;;;32.00;7.47;;;;;;;8.28;100.00;102184.75;4950108;28;20046;-79
2023/05/17 04:08:58;;;;;;;32.85;7.30;;;;;;;8.26;100.00;102181.22;4938025;28;20030;-80
2023/05/17 04:11:27;;;;;;;22.15;7.38;;;;;;;8.38;100.00;102192.47;4958523;28;20457;-81
2023/05/17 04:13:53;;;;;;;33.20;8.23;;;;;;;8.48;100.00;102201.16;4954170;28;20497;-78
2023/05/17 04:16:19;;;;;;;25.45;8.07;;;;;;;8.39;100.00;102200.59;4955020;28;20449;-81
2023/05/17 04:18:45;;;;;;;34.22;8.02;;;;;;;8.36;100.00;102205.31;4939237;28;20042;-81
2023/05/17 04:21:10;;;;;;;29.38;8.27;;;;;;;8.33;100.00;102210.94;4917527;28;20047;-80
2023/05/17 04:23:36;;;;;;;41.95;8.50;;;;;;;8.24;100.00;102204.06;4919364;29;20043;-81
2023/05/17 04:26:03;;;;;;;22.73;8.10;;;;;;;8.16;100.00;102206.28;4906500;28;20073;-81
2023/05/17 04:28:29;;;;;;;28.00;7.65;;;;;;;8.23;100.00;102211.38;4941794;28;20066;-80
2023/05/17 04:30:55;;;;;;;29.40;8.05;;;;;;;8.23;100.00;102214.13;4942689;28;20031;-79
2023/05/17 04:33:22;;;;;;;25.95;8.32;;;;;;;8.15;100.00;102216.31;4936915;28;20098;-81
2023/05/17 04:35:49;;;;;;;26.35;8.38;;;;;;;8.23;100.00;102230.50;4956433;28;20044;-79
2023/05/17 04:38:15;;;;;;;25.98;9.13;;;;;;;8.24;100.00;102221.31;4951240;28;20031;-79
2023/05/17 04:40:41;;;;;;;30.65;8.32;;;;;;;8.23;100.00;102221.41;4937823;28;20545;-81
2023/05/17 04:43:07;;;;;;;31.55;9.10;;;;;;;8.22;100.00;102231.44;4925733;28;20035;-78
2023/05/17 04:45:33;;;;;;;19.98;7.97;;;;;;;8.27;100.00;102236.69;4945359;28;20033;-79
2023/05/17 04:47:58;;;;;;;30.75;9.07;;;;;;;8.27;100.00;102223.91;4934959;29;20043;-80
2023/05/17 04:50:25;;;;;;;27.55;8.75;;;;;;;8.19;100.00;102228.84;4941504;28;20078;-79
2023/05/17 04:52:50;;;;;;;20.80;8.90;;;;;;;8.22;100.00;102220.53;4953851;28;20031;-79
2023/05/17 04:55:16;;;;;;;35.63;9.52;;;;;;;8.34;100.00;102238.16;4925322;28;20038;-80
2023/05/17 04:57:41;;;;;;;31.67;8.52;;;;;;;8.29;100.00;102243.81;4953516;28;20067;-82
2023/05/17 05:00:10;;;;;;;27.17;8.95;;;;;;;8.33;100.00;102240.94;4928570;28;20031;-82
2023/05/17 05:02:36;;;;;;;31.15;8.45;;;;;;;8.36;100.00;102238.06;4938857;28;20058;-81
2023/05/17 05:05:03;;;;;;;26.15;8.77;;;;;;;8.36;100.00;102235.34;4934633;28;20121;-82
2023/05/17 05:07:29;;;;;;;31.58;8.35;;;;;;;8.67;100.00;102253.91;4935822;28;20035;-82
2023/05/17 05:09:55;;;;;;;26.75;7.28;;;;;;;8.78;100.00;102243.34;4938807;29;20039;-82
2023/05/17 05:12:20;;;;;;;39.63;8.82;;;;;;;8.88;100.00;102249.22;4908811;29;20039;-83
2023/05/17 05:14:46;;;;;;;32.05;8.40;;;;;;;8.96;100.00;102257.06;4929445;29;20039;-83
2023/05/17 05:17:11;;;;;;;20.88;8.20;;;;;;;8.94;100.00;102265.31;4939651;29;20035;-82
2023/05/17 05:19:37;;;;;;;25.00;8.43;;;;;;;8.91;100.00;102273.66;4920784;29;20048;-83
2023/05/17 05:22:04;;;;;;;34.33;8.95;;;;;;;8.83;100.00;102271.31;4923142;28;20039;-83
2023/05/17 05:24:30;;;;;;;24.08;8.32;;;;;;;9.07;100.00;102270.16;4940448;28;20565;-83
2023/05/17 05:26:55;;;;;;;27.00;8.18;;;;;;;9.07;100.00;102286.56;4931779;28;20047;-82
2023/05/17 05:29:21;;;;;;;34.15;9.18;;;;;;;8.99;100.00;102276.03;4978098;28;20466;-83
2023/05/17 05:31:46;;;;;;;29.25;8.93;;;;;;;9.23;100.00;102284.84;4941442;28;20540;-83
2023/05/17 05:34:12;;;;;;;27.10;8.45;;;;;;;9.27;100.00;102280.97;4946731;28;20042;-83
2023/05/17 05:36:37;;;;;;;25.15;8.13;;;;;;;9.42;100.00;102290.25;4959492;28;20031;-82
2023/05/17 05:39:03;;;;;;;16.23;7.93;;;;;;;9.72;100.00;102289.63;4945849;28;20038;-83
2023/05/17 05:41:28;;;;;;;22.02;7.93;;;;;;;9.89;100.00;102300.56;4963672;28;20105;-83
2023/05/17 05:43:54;;;;;;;26.23;8.13;;;;;;;9.94;100.00;102298.47;4972837;28;20035;-82
2023/05/17 05:46:20;;;;;;;35.35;8.68;;;;;;;10.36;100.00;102293.50;4966406;28;20113;-83
2023/05/17 05:48:45;;;;;;;25.75;7.95;;;;;;;10.31;100.00;102295.59;4931917;29;20039;-83
2023/05/17 05:51:11;;;;;;;32.30;7.82;;;;;;;10.81;100.00;102300.13;4922518;28;20042;-83
2023/05/17 05:53:37;;;;;;;26.02;7.72;;;;;;;10.99;100.00;102300.06;4969630;28;20204;-83
2023/05/17 05:56:03;;;;;;;24.27;7.53;;;;;;;11.12;100.00;102305.72;4976390;28;20405;-83
2023/05/17 05:58:29;;;;;;;32.15;7.72;;;;;;;11.68;100.00;102312.44;4975946;28;20062;-82
2023/05/17 06:00:56;;;;;;;27.55;6.78;;;;;;;12.31;100.00;102316.81;4976697;28;20031;-83
2023/05/17 06:03:22;;;;;;;16.95;5.97;;;;;;;12.04;100.00;102329.53;4943478;28;20069;-83
2023/05/17 06:05:47;;;;;;;26.63;7.00;;;;;;;12.10;100.00;102318.13;4960520;28;20045;-82
2023/05/17 06:08:13;;;;;;;26.20;7.45;;;;;;;12.17;100.00;102329.63;4972733;28;20047;-82
2023/05/17 06:10:39;;;;;;;24.48;7.10;;;;;;;11.91;100.00;102330.25;4961289;28;20043;-81
2023/05/17 06:13:04;;;;;;;16.13;6.68;;;;;;;11.62;100.00;102326.50;4947327;28;20486;-80
2023/05/17 06:15:30;;;;;;;24.42;6.80;;;;;;;11.84;100.00;102328.84;4931344;28;20061;-81
2023/05/17 06:17:56;;;;;;;17.95;6.80;;;;;;;12.38;100.00;102336.53;4952775;28;20397;-82
2023/05/17 06:20:22;;;;;;;19.45;6.25;;;;;;;12.40;100.00;102333.72;4954278;28;20035;-81
2023/05/17 06:22:47;;;;;;;20.05;6.43;;;;;;;12.69;100.00;102345.56;4958719;28;20370;-81
2023/05/17 06:25:12;;;;;;;16.55;5.53;;;;;;;13.44;100.00;102349.91;4949685;28;20046;-82
2023/05/17 06:27:38;;;;;;;21.63;5.30;;;;;;;13.73;100.00;102351.56;4982498;28;20087;-82
2023/05/17 06:30:05;;;;;;;20.42;4.95;;;;;;;13.62;100.00;102348.66;4923871;28;20026;-80
2023/05/17 06:32:30;;;;;;;19.10;5.60;;;;;;;13.49;100.00;102358.72;4962166;28;20046;-80
2023/05/17 06:34:56;;;;;;;18.30;4.80;;;;;;;13.29;100.00;102355.41;4976338;28;20086;-80
2023/05/17 06:37:21;;;;;;;13.93;4.90;;;;;;;12.83;100.00;102351.06;4968089;28;20034;-81
2023/05/17 06:39:49;;;;;;;17.00;4.45;;;;;;;13.26;100.00;102360.22;4982072;28;20061;-79
2023/05/17 06:42:15;;;;;;;18.95;4.07;;;;;;;13.60;100.00;102359.75;4949539;28;20109;-78
2023/05/17 06:44:41;;;;;;;19.85;3.95;;;;;;;13.94;100.00;102365.72;4923396;28;20102;-80
2023/05/17 06:47:06;;;;;;;17.00;3.30;;;;;;;13.41;100.00;102361.97;4962449;28;20116;-79
2023/05/17 06:49:32;;;;;;;24.10;3.42;;;;;;;12.93;100.00;102359.59;4994179;28;20117;-80
2023/05/17 06:52:02;;;;;;;14.02;3.15;;;;;;;13.66;100.00;102360.31;4937570;28;20038;-79
2023/05/17 06:54:28;;;;;;;24.50;5.00;;;;;;;13.72;100.00;102366.28;4924395;28;20041;-81
2023/05/17 06:56:54;;;;;;;24.00;3.95;;;;;;;13.53;100.00;102371.31;4966669;28;20057;-82
2023/05/17 06:59:19;;;;;;;21.08;3.58;;;;;;;14.06;100.00;102368.59;4949340;28;20063;-80
2023/05/17 07:01:45;;;;;;;14.32;2.78;;;;;;;14.73;100.00;102368.47;4990811;28;20118;-80
2023/05/17 07:04:10;;;;;;;20.63;3.03;;;;;;;14.07;100.00;102364.84;4958575;28;20035;-79
2023/05/17 07:06:36;;;;;;;32.13;4.30;;;;;;;13.30;100.00;102362.69;4943993;28;20678;-80
2023/05/17 07:09:01;;;;;;;15.55;3.15;;;;;;;12.77;100.00;102373.44;4956855;28;20076;-79
2023/05/17 07:11:27;;;;;;;16.02;3.53;;;;;;;12.86;100.00;102369.22;4943594;28;20394;-79
2023/05/17 07:13:52;;;;;;;16.70;2.72;;;;;;;12.37;100.00;102364.97;4968106;28;20042;-79
2023/05/17 07:16:18;;;;;;;17.33;2.92;;;;;;;12.07;100.00;102363.16;4988604;28;20034;-79
2023/05/17 07:18:43;;;;;;;20.90;4.47;;;;;;;11.90;100.00;102369.66;4932909;28;20519;-79
2023/05/17 07:21:09;;;;;;;13.57;3.33;;;;;;;11.69;100.00;102365.44;4950639;28;20054;-79
2023/05/17 07:23:34;;;;;;;17.73;3.60;;;;;;;11.64;100.00;102373.97;4942705;28;20042;-79
2023/05/17 07:26:00;;;;;;;13.30;2.95;;;;;;;12.19;100.00;102386.22;4928067;28;20031;-79
2023/05/17 07:28:25;;;;;;;21.27;3.95;;;;;;;12.34;100.00;102375.28;4951782;28;20023;-79
2023/05/17 07:30:51;;;;;;;16.10;2.78;;;;;;;12.75;100.00;102380.03;4971021;28;20045;-80
2023/05/17 07:33:16;;;;;;;17.27;2.75;;;;;;;12.21;100.00;102358.69;4968640;28;20038;-79
2023/05/17 07:35:42;;;;;;;11.70;2.13;;;;;;;13.14;100.00;102372.94;4978290;28;20117;-79
2023/05/17 07:38:09;;;;;;;12.85;2.60;;;;;;;13.70;100.00;102384.78;4953067;28;20039;-80
2023/05/17 07:40:35;;;;;;;15.68;3.13;;;;;;;13.53;100.00;102393.31;4956575;28;20495;-80
2023/05/17 07:43:00;;;;;;;18.15;3.78;;;;;;;14.41;94.54;102393.66;4943094;28;20114;-80
2023/05/17 07:45:26;;;;;;;15.52;3.10;;;;;;;14.31;91.96;102384.28;4968422;28;20410;-79
2023/05/17 07:47:51;;;;;;;18.13;2.85;;;;;;;15.10;88.78;102393.34;4988254;28;20177;-80
2023/05/17 07:50:16;;;;;;;15.88;2.53;;;;;;;15.07;91.58;102399.09;4960300;28;20102;-80
2023/05/17 07:52:42;;;;;;;14.25;2.60;;;;;;;15.36;87.08;102405.19;4986079;28;20038;-79
2023/05/17 07:55:08;;;;;;;19.20;2.53;;;;;;;14.93;87.92;102400.09;4932766;29;20114;-79
2023/05/17 07:57:34;;;;;;;16.13;2.35;;;;;;;15.60;83.78;102396.97;4963064;28;20049;-79
2023/05/17 07:59:59;;;;;;;16.38;2.40;;;;;;;16.43;78.96;102395.22;4927336;28;20042;-80
2023/05/17 08:02:24;;;;;;;15.27;2.20;;;;;;;16.31;81.39;102397.03;4926793;28;20030;-80
2023/05/17 08:04:50;;;;;;;18.55;2.42;;;;;;;16.16;78.35;102407.44;4978730;28;20033;-80
2023/05/17 08:07:16;;;;;;;20.67;2.55;;;;;;;16.48;72.96;102409.56;4939030;28;20073;-79
2023/05/17 08:09:44;;;;;;;17.20;3.20;;;;;;;15.17;75.14;102419.50;4954397;29;20039;-79
2023/05/17 08:12:09;;;;;;;24.90;2.65;;;;;;;14.80;79.45;102416.66;4970048;28;20542;-80
2023/05/17 08:14:35;;;;;;;24.85;2.25;;;;;;;15.41;78.55;102397.47;4954797;28;20121;-80
2023/05/17 08:17:00;;;;;;;19.58;2.08;;;;;;;16.16;72.34;102414.84;4947813;28;20035;-79
2023/05/17 08:19:26;;;;;;;16.55;1.80;;;;;;;17.22;67.07;102413.81;4958303;28;20030;-80
2023/05/17 08:21:51;;;;;;;12.77;1.85;;;;;;;16.64;67.48;102414.75;4975906;28;20046;-80
2023/05/17 08:24:17;;;;;;;8.32;1.58;;;;;;;17.15;64.33;102418.06;4945842;28;20042;-80
2023/05/17 08:26:42;;;;;;;17.58;1.60;;;;;;;16.85;66.70;102405.75;4946099;28;20066;-80
2023/05/17 08:29:08;;;;;;;13.50;1.60;;;;;;;16.80;63.84;102408.84;4957004;28;20101;-80
2023/05/17 08:31:33;;;;;;;12.20;1.75;;;;;;;17.11;63.47;102403.63;4934978;28;20104;-80
2023/05/17 08:33:59;;;;;;;20.00;2.30;;;;;;;17.30;61.98;102402.09;4979290;28;20043;-80
2023/05/17 08:36:25;;;;;;;14.70;1.77;;;;;;;17.93;61.60;102394.03;4937736;28;20490;-79
2023/05/17 08:38:51;;;;;;;12.05;1.85;;;;;;;17.64;58.95;102402.91;4974018;28;20042;-80
2023/05/17 08:41:17;;;;;;;16.55;2.15;;;;;;;17.97;59.55;102403.84;4934816;29;20039;-80
2023/05/17 08:43:43;;;;;;;8.20;1.40;;;;;;;17.29;57.19;102409.50;4953099;28;20039;-80
2023/05/17 08:46:09;;;;;;;11.55;2.88;;;;;;;17.12;58.82;102410.03;4942379;28;20561;-80
2023/05/17 08:48:40;;;;;;;12.75;1.77;;;;;;;17.64;59.53;102403.81;4987390;28;20093;-80
2023/05/17 08:51:06;;;;;;;12.50;2.08;;;;;;;18.52;57.12;102409.25;4976642;28;20096;-80
2023/05/17 08:53:34;;;;;;;8.13;1.25;;;;;;;18.55;58.19;102420.94;4952119;28;20034;-80
2023/05/17 08:56:03;;;;;;;13.25;1.70;;;;;;;18.03;55.94;102413.53;4957343;28;20046;-80
2023/05/17 08:58:34;;;;;;;12.50;1.50;;;;;;;19.09;51.89;102413.41;4938228;28;20398;-80
2023/05/17 09:01:01;;;;;;;8.15;1.63;;;;;;;18.53;53.78;102405.47;4992812;28;20030;-80
2023/05/17 09:03:29;;;;;;;10.85;1.58;;;;;;;17.52;53.43;102417.81;4935733;28;20038;-80
2023/05/17 09:05:58;;;;;;;13.38;1.85;;;;;;;17.23;56.16;102416.47;4971562;28;20481;-79
2023/05/17 09:08:24;;;;;;;13.43;1.90;;;;;;;16.01;59.71;102425.22;4966737;28;20509;-79
2023/05/17 09:10:50;;;;;;;13.25;1.48;;;;;;;15.60;62.78;102424.56;4980394;28;20031;-80
2023/05/17 09:13:15;;;;;;;10.95;1.60;;;;;;;15.04;66.13;102425.03;4938663;28;20054;-79
2023/05/17 09:15:43;;;;;;;15.43;1.77;;;;;;;14.39;66.53;102419.59;4963896;28;20406;-80
2023/05/17 09:18:12;;;;;;;6.93;1.13;;;;;;;15.60;62.91;102416.28;4969623;28;20409;-81
2023/05/17 09:20:38;;;;;;;13.02;2.08;;;;;;;15.61;62.36;102422.72;4983766;28;20505;-79
2023/05/17 09:23:10;;;;;;;9.43;1.52;;;;;;;15.58;64.43;102422.94;4927125;28;20403;-79
2023/05/17 09:25:36;;;;;;;9.63;1.30;;;;;;;15.23;61.25;102423.66;4967657;28;20034;-79
2023/05/17 09:28:03;;;;;;;9.57;1.30;;;;;;;15.11;61.23;102419.94;4991591;28;20089;-79
2023/05/17 09:30:31;;;;;;;12.15;1.42;;;;;;;16.21;60.39;102415.38;4955067;28;20054;-79
2023/05/17 09:32:57;;;;;;;11.15;1.63;;;;;;;16.83;59.80;102421.56;4981535;28;20102;-80
2023/05/17 09:35:30;;;;;;;12.25;1.20;;;;;;;17.60;53.11;102418.91;4942120;29;20027;-80
2023/05/17 09:38:12;;;;;;;9.88;1.55;;;;;;;17.88;53.28;102429.59;4969921;28;20030;-80
2023/05/17 09:40:40;;;;;;;10.15;1.80;;;;;;;17.68;52.72;102421.03;4970430;28;20038;-80
2023/05/17 09:43:06;;;;;;;13.05;1.33;;;;;;;17.80;51.71;102425.53;4968359;28;20084;-80
2023/05/17 09:45:32;;;;;;;9.73;1.20;;;;;;;18.12;49.66;102429.38;4964968;28;20443;-80
2023/05/17 09:48:27;;;;;;;14.55;1.73;;;;;;;16.66;53.97;102429.31;4970226;28;20034;-80
2023/05/17 09:50:52;;;;;;;12.50;1.20;;;;;;;16.96;53.02;102429.78;4958386;28;20039;-80
2023/05/17 09:53:29;;;;;;;12.13;1.20;;;;;;;17.27;53.64;102417.94;4981282;28;20544;-80
2023/05/17 09:55:59;;;;;;;15.38;1.40;;;;;;;17.57;55.60;102412.75;4948892;28;20461;-79
2023/05/17 09:58:27;;;;;;;13.18;2.42;;;;;;;17.85;53.96;102415.94;4990549;28;20030;-80
2023/05/17 10:00:57;;;;;;;8.95;1.52;;;;;;;17.88;53.01;102416.59;4958639;28;20030;-80
2023/05/17 10:03:25;;;;;;;4.90;1.25;;;;;;;18.12;50.47;102416.38;4961515;28;20030;-80
2023/05/17 10:05:52;;;;;;;5.47;1.20;;;;;;;17.94;50.86;102420.75;4989031;28;20041;-80
2023/05/17 10:08:22;;;;;;;13.07;1.52;;;;;;;18.50;49.09;102412.16;4945904;28;20109;-80
2023/05/17 10:10:49;;;;;;;9.10;1.88;;;;;;;18.42;50.46;102414.72;4965010;28;20485;-81
2023/05/17 10:13:21;;;;;;;9.10;1.38;;;;;;;18.65;49.49;102414.59;4966590;28;20042;-80
2023/05/17 10:15:47;;;;;;;10.23;2.10;;;;;;;19.05;47.76;102419.38;4973968;28;20027;-80
2023/05/17 10:18:14;;;;;;;11.40;1.88;;;;;;;18.09;52.80;102410.25;4972512;28;20023;-80
2023/05/17 10:20:42;;;;;;;10.27;1.73;;;;;;;17.54;51.66;102416.63;4965826;28;20035;-80
2023/05/17 10:23:09;;;;;;;10.05;1.48;;;;;;;16.97;53.70;102421.38;4944986;28;20387;-80
2023/05/17 10:25:38;;;;;;;7.60;1.42;;;;;;;16.26;56.45;102428.81;4966801;28;20039;-79
2023/05/17 10:28:06;;;;;;;8.40;1.35;;;;;;;16.66;54.29;102411.81;4971219;28;20041;-80
2023/05/17 10:30:33;;;;;;;7.20;1.20;;;;;;;17.82;51.74;102419.84;4939000;28;20037;-80
2023/05/17 10:32:59;;;;;;;14.45;1.95;;;;;;;18.05;50.66;102417.03;4943868;28;20042;-80
2023/05/17 10:35:26;;;;;;;13.00;1.50;;;;;;;17.84;49.67;102420.63;4957310;28;20035;-79
2023/05/17 10:37:52;;;;;;;10.57;1.60;;;;;;;17.60;52.46;102412.50;4970473;28;20565;-80
2023/05/17 10:40:18;;;;;;;12.25;1.70;;;;;;;16.85;52.70;102416.81;4972419;28;20038;-80
2023/05/17 10:42:52;;;;;;;16.38;1.80;;;;;;;16.74;54.19;102414.84;4957041;28;20054;-80
2023/05/17 10:45:20;;;;;;;10.48;1.20;;;;;;;16.15;51.44;102399.25;4969658;28;20089;-80
2023/05/17 10:47:49;;;;;;;6.00;1.00;;;;;;;16.57;52.69;102404.28;4990290;28;20417;-80
2023/05/17 10:50:21;;;;;;;12.20;1.65;;;;;;;17.51;51.70;102393.88;4969039;28;20027;-79
2023/05/17 10:52:48;;;;;;;6.57;1.27;;;;;;;17.45;52.25;102390.59;4984312;28;20109;-80
2023/05/17 10:55:21;;;;;;;10.70;1.48;;;;;;;17.85;48.60;102391.00;4981016;28;20033;-80
2023/05/17 10:58:09;;;;;;;6.80;1.40;;;;;;;16.79;51.35;102397.91;4964854;28;20042;-80
2023/05/17 11:00:43;;;;;;;7.90;1.27;;;;;;;16.61;51.30;102389.19;4965673;28;20057;-81
2023/05/17 11:03:15;;;;;;;7.13;2.13;;;;;;;17.47;49.42;102384.06;4964637;28;20039;-80
2023/05/17 11:05:44;;;;;;;4.05;1.35;;;;;;;17.53;49.18;102384.44;4930091;28;20027;-81
2023/05/17 11:08:16;;;;;;;9.15;1.40;;;;;;;17.93;50.92;102380.19;4968088;28;20027;-80
2023/05/17 11:11:08;;;;;;;7.85;1.33;;;;;;;17.26;50.63;102388.50;4988601;28;20034;-80
2023/05/17 11:13:42;;;;;;;4.55;1.25;;;;;;;16.60;50.25;102380.03;4966529;28;20038;-80
2023/05/17 11:16:07;;;;;;;7.20;1.67;;;;;;;17.03;50.80;102379.31;4950738;28;20117;-80